Time;durP1;ratioP1;P1;durP2;ratioP2;P2;SDS_P1;SDS_P2;PMS_P1;PMS_P2;Temp;Humidity;BMP_temperature;BMP_pressure;BME280_temperature;BME280_humidity;BME280_pressure;Samples;Min_cycle;Max_cycle;Signal;HPM_P1;HPM_P2
2023/05/20 00:00:00;;;;;;;;;;;;;;;20.48;44.61;101123.01;103693;1286;61993;-82
2023/05/20 00:02:25;;;;;;;;;;;;;;;20.48;44.83;101123.55;103499;1285;62879;-82
2023/05/20 00:04:51;;;;;;;;;;;;;;;20.48;44.72;101119.61;103492;1285;62147;-83
2023/05/20 00:07:17;;;;;;;;;;;;;;;20.48;44.98;101116.97;103370;1293;62304;-83
2023/05/20 00:09:42;;;;;;;;;;;;;;;20.48;44.74;101112.85;103476;1285;63353;-83
2023/05/20 00:12:08;;;;;;;;;;;;;;;20.48;44.77;101118.92;103614;1289;62195;-83
2023/05/20 00:14:33;;;;;;;;;;;;;;;20.48;44.87;101122.68;103574;1285;62249;-83
2023/05/20 00:16:59;;;;;;;;;;;;;;;20.48;44.78;101125.34;103409;1285;62185;-82
2023/05/20 00:19:25;;;;;;;;;;;;;;;20.48;44.96;101120.53;103302;1293;62196;-83
2023/05/20 00:21:50;;;;;;;;;;;;;;;20.48;44.92;101120.19;103590;1291;63458;-84
2023/05/20 00:24:16;;;;;;;;;;;;;;;20.48;44.78;101116.26;103408;1293;62284;-83
2023/05/20 00:26:42;;;;;;;;;;;;;;;20.48;44.87;101114.82;103515;1286;62192;-83
2023/05/20 00:29:08;;;;;;;;;;;;;;;20.48;44.83;101113.56;103053;1294;72549;-82
2023/05/20 00:31:33;;;;;;;;;;;;;;;20.47;44.89;101113.41;103510;1285;62286;-83
2023/05/20 00:33:59;;;;;;;;;;;;;;;20.48;44.86;101116.45;103401;1290;62674;-83
2023/05/20 00:36:26;;;;;;;;;;;;;;;20.48;44.92;101116.09;103448;1285;62685;-82
2023/05/20 00:38:52;;;;;;;;;;;;;;;20.47;44.93;101111.27;103474;1290;62208;-81
2023/05/20 00:41:20;;;;;;;;;;;;;;;20.47;44.96;101106.47;103322;1293;75326;-83
2023/05/20 00:43:46;;;;;;;;;;;;;;;20.48;44.98;101107.50;103635;1285;62197;-83
2023/05/20 00:46:11;;;;;;;;;;;;;;;20.47;45.06;101106.45;103450;1285;62291;-83
2023/05/20 00:48:41;;;;;;;;;;;;;;;20.47;44.90;101106.63;103380;1290;62147;-83
2023/05/20 00:51:07;;;;;;;;;;;;;;;20.47;44.94;101098.08;103457;1286;76314;-82
2023/05/20 00:53:33;;;;;;;;;;;;;;;20.47;44.98;101094.14;103458;1285;62252;-83
2023/05/20 00:55:58;;;;;;;;;;;;;;;20.47;44.98;101089.83;103605;1285;62163;-82
2023/05/20 00:58:24;;;;;;;;;;;;;;;20.47;45.06;101084.84;103472;1291;63517;-83
2023/05/20 01:00:49;;;;;;;;;;;;;;;20.47;45.11;101083.77;103545;1285;62208;-81
2023/05/20 01:03:15;;;;;;;;;;;;;;;20.47;44.99;101079.48;103447;1291;62283;-82
2023/05/20 01:05:41;;;;;;;;;;;;;;;20.47;45.03;101080.89;103382;1285;62125;-83
2023/05/20 01:08:06;;;;;;;;;;;;;;;20.47;44.97;101083.60;103417;1286;62709;-83
2023/05/20 01:10:32;;;;;;;;;;;;;;;20.46;45.15;101081.48;103434;1285;62478;-82
2023/05/20 01:12:59;;;;;;;;;;;;;;;20.47;44.97;101084.15;103551;1291;62226;-83
2023/05/20 01:15:24;;;;;;;;;;;;;;;20.46;44.98;101084.16;103461;1285;62311;-83
2023/05/20 01:17:52;;;;;;;;;;;;;;;20.46;45.02;101087.91;103596;1285;63474;-82
2023/05/20 01:20:19;;;;;;;;;;;;;;;20.46;45.13;101092.02;103545;1290;62122;-83
2023/05/20 01:22:47;;;;;;;;;;;;;;;20.47;45.14;101091.12;103551;1285;76029;-82
2023/05/20 01:25:13;;;;;;;;;;;;;;;20.46;45.03;101091.52;103587;1286;62551;-82
2023/05/20 01:27:47;;;;;;;;;;;;;;;20.46;44.90;101092.19;103335;1285;62291;-83
2023/05/20 01:30:13;;;;;;;;;;;;;;;20.46;45.03;101089.34;103086;1285;72505;-85
2023/05/20 01:32:48;;;;;;;;;;;;;;;20.46;44.98;101089.02;103579;1291;62795;-82
2023/05/20 01:35:15;;;;;;;;;;;;;;;20.46;45.11;101086.88;103519;1290;63380;-83
2023/05/20 01:37:40;;;;;;;;;;;;;;;20.46;45.02;101088.48;103451;1285;62168;-83
2023/05/20 01:40:07;;;;;;;;;;;;;;;20.46;45.02;101084.71;103466;1291;62364;-83
2023/05/20 01:42:32;;;;;;;;;;;;;;;20.46;45.09;101087.76;103431;1291;63191;-83
2023/05/20 01:45:01;;;;;;;;;;;;;;;20.47;45.07;101091.30;103496;1285;62120;-82
2023/05/20 01:47:30;;;;;;;;;;;;;;;20.46;45.17;101093.83;103481;1292;63406;-82
2023/05/20 01:49:55;;;;;;;;;;;;;;;20.46;45.06;101089.91;103543;1291;72223;-83
2023/05/20 01:52:25;;;;;;;;;;;;;;;20.46;45.08;101092.42;103443;1285;62195;-83
2023/05/20 01:54:50;;;;;;;;;;;;;;;20.46;45.10;101093.33;103575;1285;62294;-81
2023/05/20 01:57:22;;;;;;;;;;;;;;;20.46;45.20;101092.42;103500;1288;62196;-82
2023/05/20 01:59:50;;;;;;;;;;;;;;;20.46;45.14;101091.16;103398;1293;73459;-83
2023/05/20 02:02:16;;;;;;;;;;;;;;;20.46;45.13;101095.63;103388;1287;75417;-83
2023/05/20 02:04:46;;;;;;;;;;;;;;;20.46;45.17;101094.92;103407;1291;62083;-83
2023/05/20 02:07:13;;;;;;;;;;;;;;;20.46;45.24;101094.04;103471;1286;62230;-83
2023/05/20 02:09:40;;;;;;;;;;;;;;;20.45;45.17;101092.98;103605;1286;72506;-82
2023/05/20 02:12:06;;;;;;;;;;;;;;;20.46;45.03;101094.40;103412;1294;62259;-82
2023/05/20 02:14:32;;;;;;;;;;;;;;;20.45;45.25;101095.84;103424;1285;62778;-83
2023/05/20 02:16:57;;;;;;;;;;;;;;;20.45;45.13;101097.64;103448;1291;62309;-82
2023/05/20 02:19:22;;;;;;;;;;;;;;;20.45;45.05;101099.96;103438;1286;63830;-82
2023/05/20 02:21:48;;;;;;;;;;;;;;;20.45;45.06;101097.10;103442;1292;62187;-83
2023/05/20 02:24:15;;;;;;;;;;;;;;;20.45;45.07;101102.64;103456;1286;75946;-83
2023/05/20 02:26:44;;;;;;;;;;;;;;;20.45;45.27;101099.44;103438;1288;62191;-82
2023/05/20 02:29:10;;;;;;;;;;;;;;;20.45;45.19;101102.83;103475;1291;63524;-83
2023/05/20 02:31:42;;;;;;;;;;;;;;;20.44;45.11;101101.98;103377;1293;72530;-83
2023/05/20 02:34:08;;;;;;;;;;;;;;;20.44;45.34;101098.59;103536;1286;76469;-82
2023/05/20 02:36:33;;;;;;;;;;;;;;;20.45;45.32;101100.00;103533;1285;62299;-82
2023/05/20 02:39:00;;;;;;;;;;;;;;;20.44;45.28;101095.91;103408;1285;62252;-83
2023/05/20 02:41:31;;;;;;;;;;;;;;;20.44;45.36;101099.99;103433;1294;62151;-82
2023/05/20 02:43:56;;;;;;;;;;;;;;;20.44;45.22;101098.25;103465;1286;75316;-83
2023/05/20 02:46:22;;;;;;;;;;;;;;;20.45;45.36;101100.53;103431;1288;63957;-83
2023/05/20 02:48:48;;;;;;;;;;;;;;;20.44;45.35;101102.70;103381;1285;62226;-82
2023/05/20 02:51:13;;;;;;;;;;;;;;;20.44;45.25;101104.16;103465;1292;62191;-83
2023/05/20 02:53:39;;;;;;;;;;;;;;;20.44;45.33;101107.89;103677;1285;62117;-83
2023/05/20 02:56:04;;;;;;;;;;;;;;;20.45;45.29;101110.19;103450;1294;76074;-83
2023/05/20 02:58:30;;;;;;;;;;;;;;;20.45;45.34;101118.42;103511;1285;62554;-82
2023/05/20 03:00:56;;;;;;;;;;;;;;;20.45;45.31;101118.42;103447;1285;63249;-81
2023/05/20 03:03:24;;;;;;;;;;;;;;;20.43;45.26;101120.60;103339;1286;62206;-82
2023/05/20 03:05:50;;;;;;;;;;;;;;;20.43;45.35;101124.91;103404;1294;62202;-83
2023/05/20 03:08:19;;;;;;;;;;;;;;;20.43;45.26;101132.23;103630;1286;62194;-83
2023/05/20 03:10:44;;;;;;;;;;;;;;;20.44;45.39;101136.84;103571;1285;62220;-83
2023/05/20 03:13:10;;;;;;;;;;;;;;;20.43;45.38;101135.11;103438;1291;62209;-83
2023/05/20 03:15:39;;;;;;;;;;;;;;;20.44;45.33;101134.91;103376;1291;62218;-82
2023/05/20 03:18:07;;;;;;;;;;;;;;;20.44;45.42;101136.86;103390;1294;63377;-83
2023/05/20 03:20:35;;;;;;;;;;;;;;;20.44;45.41;101140.62;103626;1287;62180;-84
2023/05/20 03:23:01;;;;;;;;;;;;;;;20.44;45.32;101141.33;103441;1285;71482;-84
2023/05/20 03:25:27;;;;;;;;;;;;;;;20.43;45.35;101141.34;103332;1285;62064;-83
2023/05/20 03:28:02;;;;;;;;;;;;;;;20.44;45.46;101140.45;103360;1294;62267;-83
2023/05/20 03:30:38;;;;;;;;;;;;;;;20.44;45.39;101146.35;103541;1289;62272;-83
2023/05/20 03:33:04;;;;;;;;;;;;;;;20.43;45.50;101146.34;103396;1285;63441;-83
2023/05/20 03:35:30;;;;;;;;;;;;;;;20.44;45.41;101148.11;103608;1289;62182;-84
2023/05/20 03:37:57;;;;;;;;;;;;;;;20.44;45.35;101150.59;103569;1285;62210;-83
2023/05/20 03:40:23;;;;;;;;;;;;;;;20.44;45.31;101149.20;103459;1285;62950;-83
2023/05/20 03:42:51;;;;;;;;;;;;;;;20.45;45.49;101151.14;103408;1285;62357;-83
2023/05/20 03:45:19;;;;;;;;;;;;;;;20.44;45.42;101150.43;103468;1285;62178;-83
2023/05/20 03:47:45;;;;;;;;;;;;;;;20.44;45.38;101150.42;103571;1285;62188;-82
2023/05/20 03:50:10;;;;;;;;;;;;;;;20.45;45.44;101153.45;103584;1286;62171;-83
2023/05/20 03:52:36;;;;;;;;;;;;;;;20.44;45.29;101148.83;103606;1287;62200;-83
2023/05/20 03:55:02;;;;;;;;;;;;;;;20.45;45.38;101151.29;103369;1293;62758;-83
2023/05/20 03:57:29;;;;;;;;;;;;;;;20.45;45.42;101152.00;103548;1285;62245;-83
2023/05/20 03:59:55;;;;;;;;;;;;;;;20.45;45.42;101157.02;103574;1291;62794;-83
2023/05/20 04:02:21;;;;;;;;;;;;;;;20.44;45.53;101165.45;103480;1291;62301;-83
2023/05/20 04:04:46;;;;;;;;;;;;;;;20.45;45.47;101170.26;103477;1285;62297;-83
2023/05/20 04:07:15;;;;;;;;;;;;;;;20.45;45.50;101171.66;103420;1286;75260;-83
2023/05/20 04:09:44;;;;;;;;;;;;;;;20.45;45.52;101173.11;103546;1286;62113;-84
2023/05/20 04:12:10;;;;;;;;;;;;;;;20.45;45.58;101173.28;103494;1291;62117;-82
2023/05/20 04:14:41;;;;;;;;;;;;;;;20.45;45.46;101172.92;103649;1286;73400;-83
2023/05/20 04:17:07;;;;;;;;;;;;;;;20.45;45.54;101179.20;103491;1291;75140;-83
2023/05/20 04:19:33;;;;;;;;;;;;;;;20.44;45.43;101177.78;103479;1289;63743;-83
2023/05/20 04:22:00;;;;;;;;;;;;;;;20.45;45.54;101181.16;103553;1288;62150;-84
2023/05/20 04:24:29;;;;;;;;;;;;;;;20.44;45.49;101185.09;103463;1291;63791;-83
2023/05/20 04:26:54;;;;;;;;;;;;;;;20.45;45.60;101185.98;103411;1292;75330;-82
2023/05/20 04:29:20;;;;;;;;;;;;;;;20.45;45.44;101190.44;103361;1286;62301;-82
2023/05/20 04:31:46;;;;;;;;;;;;;;;20.45;45.49;101193.98;103690;1285;62460;-83
2023/05/20 04:34:12;;;;;;;;;;;;;;;20.45;45.57;101194.33;103453;1285;62169;-83
2023/05/20 04:36:38;;;;;;;;;;;;;;;20.46;45.55;101198.05;103424;1296;62200;-82
2023/05/20 04:39:07;;;;;;;;;;;;;;;20.46;45.54;101200.36;103608;1285;63315;-82
2023/05/20 04:41:32;;;;;;;;;;;;;;;20.46;45.47;101199.86;103442;1290;62198;-83
2023/05/20 04:44:03;;;;;;;;;;;;;;;20.47;45.43;101201.61;103462;1290;73509;-83
2023/05/20 04:46:32;;;;;;;;;;;;;;;20.47;45.50;101203.73;103478;1287;62290;-83
2023/05/20 04:49:03;;;;;;;;;;;;;;;20.47;45.67;101201.96;103565;1285;63277;-83
2023/05/20 04:51:29;;;;;;;;;;;;;;;20.47;45.61;101205.52;103578;1285;62107;-82
2023/05/20 04:53:54;;;;;;;;;;;;;;;20.47;45.67;101203.91;103468;1291;62230;-82
2023/05/20 04:56:20;;;;;;;;;;;;;;;20.47;45.58;101205.33;103403;1292;63391;-82
2023/05/20 04:58:46;;;;;;;;;;;;;;;20.47;45.46;101208.70;103481;1291;63425;-83
2023/05/20 05:01:11;;;;;;;;;;;;;;;20.47;45.58;101207.45;103608;1285;62206;-83
2023/05/20 05:03:37;;;;;;;;;;;;;;;20.48;45.62;101210.30;103594;1285;62190;-83
2023/05/20 05:06:25;;;;;;;;;;;;;;;20.48;45.64;101208.88;103456;1285;62305;-82
2023/05/20 05:08:51;;;;;;;;;;;;;;;20.48;45.59;101207.79;102921;1295;76219;-83
2023/05/20 05:11:19;;;;;;;;;;;;;;;20.49;45.54;101209.86;102939;1291;62301;-83
2023/05/20 05:13:44;;;;;;;;;;;;;;;20.50;45.54;101213.58;102965;1296;62218;-82
2023/05/20 05:16:13;;;;;;;;;;;;;;;20.50;45.57;101216.42;102993;1292;62257;-83
2023/05/20 05:18:41;;;;;;;;;;;;;;;20.50;45.72;101219.77;102972;1296;75550;-83
2023/05/20 05:21:06;;;;;;;;;;;;;;;20.51;45.51;101220.98;103678;1291;62153;-81
2023/05/20 05:23:32;;;;;;;;;;;;;;;20.51;45.67;101229.01;103714;1291;63563;-81
2023/05/20 05:25:57;;;;;;;;;;;;;;;20.53;45.68;101231.44;103584;1291;62314;-80
2023/05/20 05:28:23;;;;;;;;;;;;;;;20.54;45.67;101238.70;103304;1291;62207;-82
2023/05/20 05:30:48;;;;;;;;;;;;;;;20.54;45.63;101237.23;103103;1297;62305;-82
2023/05/20 05:33:17;;;;;;;;;;;;;;;20.55;45.79;101238.77;103024;1292;62131;-82
2023/05/20 05:35:42;;;;;;;;;;;;;;;20.56;45.73;101237.45;103009;1297;62212;-84
2023/05/20 05:38:08;;;;;;;;;;;;;;;20.57;45.62;101244.00;102998;1291;63389;-83
2023/05/20 05:40:34;;;;;;;;;;;;;;;20.59;45.82;101243.91;103022;1291;62212;-84
2023/05/20 05:43:00;;;;;;;;;;;;;;;20.59;45.63;101250.17;103061;1304;62173;-83
2023/05/20 05:45:25;;;;;;;;;;;;;;;20.60;45.69;101249.91;103044;1297;63546;-82
2023/05/20 05:47:57;;;;;;;;;;;;;;;20.61;45.68;101252.92;103544;1293;62139;-83
2023/05/20 05:50:22;;;;;;;;;;;;;;;20.62;45.60;101248.08;103461;1293;74581;-83
2023/05/20 05:52:48;;;;;;;;;;;;;;;20.63;45.48;101248.73;103460;1287;62206;-83
2023/05/20 05:55:13;;;;;;;;;;;;;;;20.64;45.55;101247.04;103522;1288;62173;-82
2023/05/20 05:57:39;;;;;;;;;;;;;;;20.64;45.71;101249.86;103330;1293;62208;-83
2023/05/20 06:00:09;;;;;;;;;;;;;;;20.65;45.66;101258.40;103507;1292;63762;-83
2023/05/20 06:02:36;;;;;;;;;;;;;;;20.66;45.65;101257.99;103360;1290;75324;-83
2023/05/20 06:05:02;;;;;;;;;;;;;;;20.66;45.53;101259.40;103467;1285;62155;-83
2023/05/20 06:07:28;;;;;;;;;;;;;;;20.67;45.57;101260.58;103420;1285;63229;-84
2023/05/20 06:09:53;;;;;;;;;;;;;;;20.67;45.53;101256.48;103611;1295;62192;-83
2023/05/20 06:12:19;;;;;;;;;;;;;;;20.68;45.58;101254.13;103538;1292;62270;-83
2023/05/20 06:14:45;;;;;;;;;;;;;;;20.67;45.64;101252.52;103460;1292;62151;-83
2023/05/20 06:17:13;;;;;;;;;;;;;;;20.68;45.67;101252.13;103369;1291;62105;-83
2023/05/20 06:19:40;;;;;;;;;;;;;;;20.67;45.63;101256.64;103573;1291;62156;-82
2023/05/20 06:22:05;;;;;;;;;;;;;;;20.67;45.75;101251.99;103571;1295;62145;-83
2023/05/20 06:24:32;;;;;;;;;;;;;;;20.67;45.54;101248.80;103469;1291;63394;-83
2023/05/20 06:26:57;;;;;;;;;;;;;;;20.67;45.54;101248.45;103500;1291;62213;-83
2023/05/20 06:29:25;;;;;;;;;;;;;;;20.66;45.63;101248.13;103381;1291;62113;-83
2023/05/20 06:31:50;;;;;;;;;;;;;;;20.66;45.68;101247.64;103563;1291;62551;-82
2023/05/20 06:34:16;;;;;;;;;;;;;;;20.65;45.58;101244.61;103540;1286;62140;-83
2023/05/20 06:36:42;;;;;;;;;;;;;;;20.65;45.55;101238.91;103602;1286;62092;-83
2023/05/20 06:39:11;;;;;;;;;;;;;;;20.65;45.62;101240.70;103613;1291;62275;-83
2023/05/20 06:41:38;;;;;;;;;;;;;;;20.64;45.67;101236.61;103628;1291;62084;-83
2023/05/20 06:44:05;;;;;;;;;;;;;;;20.64;45.61;101236.46;103567;1287;73272;-84
2023/05/20 06:46:31;;;;;;;;;;;;;;;20.64;45.69;101237.19;103499;1291;62223;-83
2023/05/20 06:48:57;;;;;;;;;;;;;;;20.63;45.73;101234.36;103487;1295;63324;-82
2023/05/20 06:51:22;;;;;;;;;;;;;;;20.63;45.64;101230.95;103323;1287;62290;-83
2023/05/20 06:53:48;;;;;;;;;;;;;;;20.64;45.74;101227.73;103471;1294;62206;-82
2023/05/20 06:56:13;;;;;;;;;;;;;;;20.63;45.77;101223.81;103526;1301;62275;-84
2023/05/20 06:58:39;;;;;;;;;;;;;;;20.63;45.76;101221.86;103432;1286;76269;-82
2023/05/20 07:01:05;;;;;;;;;;;;;;;20.63;45.73;101218.48;103618;1291;62281;-83
2023/05/20 07:03:30;;;;;;;;;;;;;;;20.62;45.73;101214.92;103343;1291;63374;-83
2023/05/20 07:05:57;;;;;;;;;;;;;;;20.63;45.71;101212.21;102914;1292;769751;-83
2023/05/20 07:08:23;;;;;;;;;;;;;;;20.62;45.87;101209.39;103578;1291;62399;-83
2023/05/20 07:10:48;;;;;;;;;;;;;;;20.63;45.77;101208.48;103443;1291;62216;-83
2023/05/20 07:13:14;;;;;;;;;;;;;;;20.62;45.79;101204.75;103472;1301;62278;-83
2023/05/20 07:15:39;;;;;;;;;;;;;;;20.62;45.80;101204.02;103511;1295;63197;-83
2023/05/20 07:18:07;;;;;;;;;;;;;;;20.62;45.73;101193.10;103379;1291;62204;-84
2023/05/20 07:20:33;;;;;;;;;;;;;;;20.62;45.91;101189.35;103438;1286;76097;-82
2023/05/20 07:23:00;;;;;;;;;;;;;;;20.63;45.86;101182.16;103504;1292;63245;-83
2023/05/20 07:25:25;;;;;;;;;;;;;;;20.63;45.70;101178.75;103446;1292;63313;-83
2023/05/20 07:27:51;;;;;;;;;;;;;;;20.63;45.87;101173.38;103422;1292;63298;-82
2023/05/20 07:30:17;;;;;;;;;;;;;;;20.63;45.95;101168.20;103470;1291;62673;-83
2023/05/20 07:32:42;;;;;;;;;;;;;;;20.63;45.91;101165.69;103399;1291;62181;-83
2023/05/20 07:35:09;;;;;;;;;;;;;;;20.63;45.94;101165.87;103573;1290;62226;-82
2023/05/20 07:37:37;;;;;;;;;;;;;;;20.63;45.97;101170.17;103467;1291;62325;-83
2023/05/20 07:40:04;;;;;;;;;;;;;;;20.64;45.82;101176.92;103435;1292;72367;-83
2023/05/20 07:42:29;;;;;;;;;;;;;;;20.64;45.88;101179.41;103478;1292;75320;-82
2023/05/20 07:44:58;;;;;;;;;;;;;;;20.64;46.11;101184.44;103539;1292;62761;-83
2023/05/20 07:47:23;;;;;;;;;;;;;;;20.64;45.95;101181.76;103545;1291;62156;-83
2023/05/20 07:49:49;;;;;;;;;;;;;;;20.64;46.04;101179.59;103474;1292;62198;-83
2023/05/20 07:52:15;;;;;;;;;;;;;;;20.64;46.02;101178.54;103560;1292;63365;-83
2023/05/20 07:54:41;;;;;;;;;;;;;;;20.64;46.11;101175.15;103456;1290;62293;-83
2023/05/20 07:57:06;;;;;;;;;;;;;;;20.65;46.04;101177.77;103567;1292;62117;-83
2023/05/20 07:59:32;;;;;;;;;;;;;;;20.64;45.98;101177.62;103720;1289;62252;-83
2023/05/20 08:01:57;;;;;;;;;;;;;;;20.65;46.06;101183.84;103593;1288;62147;-83
2023/05/20 08:04:23;;;;;;;;;;;;;;;20.64;45.88;101184.92;103561;1292;62284;-82
2023/05/20 08:06:49;;;;;;;;;;;;;;;20.65;46.04;101183.11;103602;1289;63371;-82
2023/05/20 08:09:15;;;;;;;;;;;;;;;20.65;46.03;101179.69;103020;1293;62114;-83
2023/05/20 08:11:40;;;;;;;;;;;;;;;20.65;46.06;101179.14;103065;1297;62384;-82
2023/05/20 08:14:06;;;;;;;;;;;;;;;20.66;46.02;101183.40;103243;1290;62204;-82
2023/05/20 08:16:34;;;;;;;;;;;;;;;20.66;46.03;101186.41;103026;1291;75256;-84
2023/05/20 08:19:00;;;;;;;;;;;;;;;20.67;46.06;101190.31;103120;1294;62283;-82
2023/05/20 08:21:26;;;;;;;;;;;;;;;20.67;46.09;101186.20;103070;1290;63521;-82
2023/05/20 08:23:51;;;;;;;;;;;;;;;20.67;46.01;101187.25;102985;1289;63361;-83
2023/05/20 08:26:17;;;;;;;;;;;;;;;20.68;46.05;101189.39;103051;1304;62318;-82
2023/05/20 08:28:43;;;;;;;;;;;;;;;20.68;46.14;101184.54;103099;1293;62379;-83
2023/05/20 08:31:08;;;;;;;;;;;;;;;20.68;46.18;101182.91;103109;1295;62322;-83
2023/05/20 08:33:34;;;;;;;;;;;;;;;20.69;46.08;101180.75;103063;1291;62313;-84
2023/05/20 08:36:00;;;;;;;;;;;;;;;20.69;46.18;101180.17;103121;1293;62209;-82
2023/05/20 08:38:25;;;;;;;;;;;;;;;20.70;46.00;101174.96;102944;1294;62273;-83
2023/05/20 08:40:54;;;;;;;;;;;;;;;20.70;46.08;101170.63;103369;1291;62209;-82
2023/05/20 08:43:20;;;;;;;;;;;;;;;20.71;46.22;101168.10;103478;1291;62226;-83
2023/05/20 08:45:48;;;;;;;;;;;;;;;20.72;46.20;101170.20;103535;1285;62094;-82
2023/05/20 08:48:15;;;;;;;;;;;;;;;20.72;46.22;101162.31;103761;1291;75339;-82
2023/05/20 08:50:41;;;;;;;;;;;;;;;20.73;46.09;101162.62;103702;1286;62111;-83
2023/05/20 08:53:06;;;;;;;;;;;;;;;20.73;46.16;101165.81;103542;1286;62148;-83
2023/05/20 08:55:36;;;;;;;;;;;;;;;20.74;46.18;101168.46;103647;1290;62205;-82
2023/05/20 08:58:02;;;;;;;;;;;;;;;20.74;46.31;101168.08;103548;1289;75282;-82
2023/05/20 09:00:28;;;;;;;;;;;;;;;20.74;46.15;101168.10;103508;1285;62207;-82
2023/05/20 09:02:53;;;;;;;;;;;;;;;20.73;46.15;101163.45;103538;1291;63453;-83
2023/05/20 09:05:28;;;;;;;;;;;;;;;20.74;46.17;101169.33;103418;1291;63388;-83
2023/05/20 09:08:05;;;;;;;;;;;;;;;20.74;46.05;101157.88;103604;1289;76063;-82
2023/05/20 09:10:32;;;;;;;;;;;;;;;20.74;46.23;101155.56;103607;1285;62147;-83
2023/05/20 09:13:02;;;;;;;;;;;;;;;20.74;46.15;101151.09;103516;1285;63326;-83
2023/05/20 09:15:27;;;;;;;;;;;;;;;20.74;46.17;101149.28;103503;1285;72596;-82
2023/05/20 09:17:53;;;;;;;;;;;;;;;20.75;46.08;101144.79;103598;1289;62165;-82
2023/05/20 09:20:20;;;;;;;;;;;;;;;20.75;46.20;101141.00;103468;1293;62219;-83
2023/05/20 09:22:46;;;;;;;;;;;;;;;20.75;46.18;101147.80;103622;1285;62396;-83
2023/05/20 09:25:13;;;;;;;;;;;;;;;20.75;46.21;101145.14;103507;1285;62713;-84
2023/05/20 09:27:38;;;;;;;;;;;;;;;20.75;46.06;101144.39;103563;1285;62213;-82
2023/05/20 09:30:08;;;;;;;;;;;;;;;20.76;46.17;101140.24;103470;1286;62294;-82
2023/05/20 09:32:37;;;;;;;;;;;;;;;20.76;46.08;101135.05;103342;1286;62206;-82
2023/05/20 09:35:04;;;;;;;;;;;;;;;20.75;46.25;101130.58;103644;1291;62278;-82
2023/05/20 09:37:30;;;;;;;;;;;;;;;20.75;46.22;101127.73;103345;1288;76242;-83
2023/05/20 09:39:56;;;;;;;;;;;;;;;20.76;46.16;101128.77;103284;1292;62236;-82
2023/05/20 09:42:27;;;;;;;;;;;;;;;20.76;46.17;101125.56;103294;1294;62309;-83
2023/05/20 09:44:53;;;;;;;;;;;;;;;20.76;46.20;101123.74;103142;1289;73620;-82
2023/05/20 09:47:19;;;;;;;;;;;;;;;20.77;46.14;101126.74;103197;1288;62257;-83
2023/05/20 09:49:47;;;;;;;;;;;;;;;20.77;46.16;101127.09;103348;1291;62284;-83
2023/05/20 09:52:14;;;;;;;;;;;;;;;20.77;46.26;101129.94;103330;1288;62348;-83
2023/05/20 09:54:41;;;;;;;;;;;;;;;20.78;46.17;101130.45;103289;1288;72589;-83
2023/05/20 09:57:06;;;;;;;;;;;;;;;20.78;46.26;101132.95;103268;1292;75318;-83
2023/05/20 09:59:32;;;;;;;;;;;;;;;20.78;46.16;101130.61;103354;1290;62302;-83
2023/05/20 10:02:01;;;;;;;;;;;;;;;20.79;46.17;101133.44;103281;1288;62305;-83
2023/05/20 10:04:27;;;;;;;;;;;;;;;20.78;46.23;101128.81;103258;1288;71310;-83
2023/05/20 10:07:12;;;;;;;;;;;;;;;20.79;46.09;101120.91;103317;1289;63343;-83
2023/05/20 10:09:42;;;;;;;;;;;;;;;20.79;46.13;101111.59;102894;1291;62074;-83
2023/05/20 10:12:14;;;;;;;;;;;;;;;20.80;46.21;101108.69;103080;1291;62308;-82
2023/05/20 10:14:40;;;;;;;;;;;;;;;20.80;46.21;101109.19;103009;1291;72394;-83
2023/05/20 10:17:35;;;;;;;;;;;;;;;20.80;46.14;101098.29;102925;1291;62309;-83
2023/05/20 10:20:01;;;;;;;;;;;;;;;20.80;46.20;101099.89;102492;1291;62139;-83
2023/05/20 10:22:30;;;;;;;;;;;;;;;20.81;46.20;101098.60;102951;1296;62251;-84
2023/05/20 10:24:59;;;;;;;;;;;;;;;20.80;46.16;101108.29;103043;1296;72327;-83
2023/05/20 10:27:25;;;;;;;;;;;;;;;20.80;46.22;101104.17;102993;1292;76603;-83
2023/05/20 10:29:51;;;;;;;;;;;;;;;20.80;46.13;101103.11;103023;1296;62200;-83
2023/05/20 10:32:27;;;;;;;;;;;;;;;20.80;46.20;101099.71;103063;1292;62175;-82
2023/05/20 10:34:57;;;;;;;;;;;;;;;20.80;46.19;101094.89;102977;1292;73343;-82
2023/05/20 10:37:26;;;;;;;;;;;;;;;20.80;46.16;101089.14;102963;1291;76083;-83
2023/05/20 10:39:51;;;;;;;;;;;;;;;20.80;46.09;101091.66;103038;1297;63337;-81
2023/05/20 10:42:26;;;;;;;;;;;;;;;20.80;46.26;101087.18;102973;1292;62364;-83
2023/05/20 10:44:51;;;;;;;;;;;;;;;20.80;46.21;101084.35;102978;1296;73842;-82
2023/05/20 10:47:20;;;;;;;;;;;;;;;20.80;46.26;101085.08;103299;1291;63407;-83
2023/05/20 10:49:48;;;;;;;;;;;;;;;20.79;46.23;101078.84;103615;1285;62270;-84
2023/05/20 10:52:14;;;;;;;;;;;;;;;20.79;46.34;101081.35;103499;1286;63181;-83
2023/05/20 10:54:47;;;;;;;;;;;;;;;20.80;46.22;101075.44;103520;1291;72290;-84
2023/05/20 10:57:15;;;;;;;;;;;;;;;20.79;46.17;101072.05;103678;1285;76261;-84
2023/05/20 10:59:41;;;;;;;;;;;;;;;20.79;46.27;101070.26;103523;1288;62195;-83
2023/05/20 11:02:06;;;;;;;;;;;;;;;20.80;46.27;101062.56;103556;1291;62178;-82
2023/05/20 11:04:35;;;;;;;;;;;;;;;20.80;46.22;101058.61;103505;1291;63397;-83
2023/05/20 11:07:01;;;;;;;;;;;;;;;20.79;46.22;101056.48;103554;1291;62196;-82
2023/05/20 11:09:29;;;;;;;;;;;;;;;20.80;46.17;101049.64;103539;1285;62113;-83
2023/05/20 11:11:55;;;;;;;;;;;;;;;20.79;46.20;101047.38;103492;1286;63310;-84
2023/05/20 11:14:21;;;;;;;;;;;;;;;20.80;46.10;101049.50;103492;1285;72496;-83
2023/05/20 11:16:50;;;;;;;;;;;;;;;20.80;46.18;101049.13;103568;1285;62181;-83
2023/05/20 11:19:17;;;;;;;;;;;;;;;20.80;46.18;101040.73;103498;1286;62110;-83
2023/05/20 11:21:44;;;;;;;;;;;;;;;20.79;46.13;101031.78;103577;1285;62197;-84
2023/05/20 11:24:11;;;;;;;;;;;;;;;20.79;46.19;101037.52;103575;1291;62198;-83
2023/05/20 11:26:36;;;;;;;;;;;;;;;20.80;46.15;101026.75;103510;1291;62134;-82
2023/05/20 11:29:02;;;;;;;;;;;;;;;20.80;46.24;101021.41;103490;1286;62768;-82
2023/05/20 11:31:28;;;;;;;;;;;;;;;20.80;46.14;101026.39;103573;1285;62639;-83
2023/05/20 11:33:54;;;;;;;;;;;;;;;20.80;46.16;101016.23;103459;1285;62232;-82
2023/05/20 11:36:21;;;;;;;;;;;;;;;20.80;46.25;101013.17;103585;1285;62802;-83
2023/05/20 11:38:47;;;;;;;;;;;;;;;20.80;46.05;101003.65;103576;1285;62278;-82
2023/05/20 11:41:12;;;;;;;;;;;;;;;20.80;46.11;101001.69;103611;1290;72084;-83
2023/05/20 11:43:41;;;;;;;;;;;;;;;20.80;46.13;101002.05;103608;1290;62241;-83
2023/05/20 11:46:07;;;;;;;;;;;;;;;20.80;46.14;100994.73;103880;1286;62098;-83
2023/05/20 11:48:33;;;;;;;;;;;;;;;20.80;46.14;100992.20;104120;1286;62207;-81
2023/05/20 11:50:58;;;;;;;;;;;;;;;20.80;46.19;100989.88;103703;1286;63395;-82
2023/05/20 11:53:24;;;;;;;;;;;;;;;20.81;46.24;100992.52;103765;1285;62205;-81
2023/05/20 11:55:50;;;;;;;;;;;;;;;20.81;46.13;100982.50;103539;1285;62191;-82
2023/05/20 11:58:23;;;;;;;;;;;;;;;20.81;46.17;100988.58;103613;1285;62067;-83
2023/05/20 12:00:49;;;;;;;;;;;;;;;20.82;46.20;100985.64;103647;1284;62118;-83
2023/05/20 12:03:18;;;;;;;;;;;;;;;20.82;46.14;100978.52;104061;1285;62826;-80
2023/05/20 12:05:43;;;;;;;;;;;;;;;20.83;46.17;100982.39;103819;1285;62165;-82
2023/05/20 12:08:08;;;;;;;;;;;;;;;20.83;46.21;100974.68;103784;1291;62330;-83
2023/05/20 12:10:38;;;;;;;;;;;;;;;20.83;46.12;100970.21;103720;1285;62268;-83
2023/05/20 12:13:07;;;;;;;;;;;;;;;20.84;46.26;100961.22;103874;1286;62174;-83
2023/05/20 12:15:34;;;;;;;;;;;;;;;20.84;46.11;100956.52;103677;1289;73431;-83
2023/05/20 12:18:00;;;;;;;;;;;;;;;20.85;46.09;100955.23;103556;1284;75048;-83
2023/05/20 12:20:33;;;;;;;;;;;;;;;20.85;46.16;100955.03;103535;1290;62184;-83
2023/05/20 12:22:59;;;;;;;;;;;;;;;20.85;46.17;100956.09;103625;1288;62143;-82